Time;durP1;ratioP1;P1;durP2;ratioP2;P2;SDS_P1;SDS_P2;PMS_P1;PMS_P2;Temp;Humidity;BMP_temperature;BMP_pressure;BME280_temperature;BME280_humidity;BME280_pressure;Samples;Min_cycle;Max_cycle;Signal;HPM_P1;HPM_P2
2022/10/08 00:01:01;;;;;;;9.48;2.30;;;13.40;70.50;;;;;;9179124;19;20028;-61
2022/10/08 00:04:04;;;;;;;16.60;3.00;;;13.40;70.50;;;;;;9182043;19;20016;-62
2022/10/08 00:07:08;;;;;;;12.00;2.95;;;13.30;70.50;;;;;;9179279;19;20006;-62
2022/10/08 00:10:12;;;;;;;14.82;2.75;;;13.30;70.50;;;;;;9178156;19;20029;-63
2022/10/08 00:13:17;;;;;;;12.35;2.30;;;13.30;70.60;;;;;;9181266;19;20011;-62
2022/10/08 00:16:24;;;;;;;13.48;2.47;;;13.30;70.60;;;;;;9181842;19;20471;-61
2022/10/08 00:19:28;;;;;;;17.92;4.15;;;13.30;70.70;;;;;;9181580;19;20363;-60
2022/10/08 00:22:32;;;;;;;9.80;2.80;;;13.30;70.70;;;;;;9178567;19;20025;-63
2022/10/08 00:25:40;;;;;;;8.38;2.45;;;13.30;70.80;;;;;;9180256;19;20010;-62
2022/10/08 00:28:47;;;;;;;9.88;2.08;;;13.30;70.80;;;;;;9180588;19;20018;-63
2022/10/08 00:31:51;;;;;;;15.27;2.90;;;13.30;70.90;;;;;;9174937;19;20416;-61
2022/10/08 00:34:56;;;;;;;;;;;13.30;70.90;;;;;;9182045;19;20411;-61
2022/10/08 00:37:59;;;;;;;20.83;2.80;;;13.30;70.90;;;;;;9180966;19;19927;-62
2022/10/08 00:41:04;;;;;;;10.80;2.40;;;13.30;70.80;;;;;;9180112;19;20021;-63
2022/10/08 00:44:38;;;;;;;16.02;2.80;;;13.30;70.90;;;;;;9180848;19;20018;-59
2022/10/08 00:47:46;;;;;;;14.52;2.83;;;13.20;71.10;;;;;;9177627;19;20471;-63
2022/10/08 00:50:50;;;;;;;15.48;2.55;;;13.30;71.20;;;;;;9179444;19;20022;-59
2022/10/08 00:53:54;;;;;;;34.17;5.38;;;13.30;71.20;;;;;;9179523;19;20042;-61
2022/10/08 00:56:57;;;;;;;;;;;13.30;71.30;;;;;;9180374;19;20014;-62
2022/10/08 01:00:03;;;;;;;11.75;2.70;;;13.30;71.20;;;;;;9178563;19;19954;-62
2022/10/08 01:07:06;;;;;;;15.32;3.28;;;13.30;71.30;;;;;;9167856;19;20014;-61
2022/10/08 01:10:14;;;;;;;12.23;2.40;;;13.40;71.30;;;;;;9176681;19;20022;-61
2022/10/08 01:13:28;;;;;;;12.02;2.67;;;13.40;71.40;;;;;;9176338;19;20093;-62
2022/10/08 01:16:43;;;;;;;8.98;3.45;;;13.40;71.40;;;;;;9174768;19;20023;-66
2022/10/08 01:20:11;;;;;;;16.67;3.25;;;13.40;71.50;;;;;;9175871;19;20154;-59
2022/10/08 01:23:38;;;;;;;10.43;2.33;;;13.40;71.70;;;;;;9171998;19;20377;-62
2022/10/08 01:26:56;;;;;;;13.63;2.10;;;13.50;71.80;;;;;;9173812;19;20478;-60
2022/10/08 01:30:05;;;;;;;15.23;2.78;;;13.50;71.70;;;;;;9177066;19;20369;-61
2022/10/08 01:33:14;;;;;;;14.05;2.83;;;13.50;71.70;;;;;;9176918;19;20029;-61
2022/10/08 01:36:21;;;;;;;19.35;3.00;;;13.50;72.40;;;;;;9176084;19;20019;-61
2022/10/08 01:39:29;;;;;;;11.23;2.88;;;13.60;71.90;;;;;;9175505;19;20010;-62
2022/10/08 01:42:38;;;;;;;13.15;2.38;;;13.60;71.90;;;;;;9174675;19;20051;-63
2022/10/08 01:45:47;;;;;;;18.00;2.95;;;13.60;72.00;;;;;;9176245;19;20024;-65
2022/10/08 01:48:53;;;;;;;14.57;2.40;;;13.70;72.10;;;;;;9175362;19;20031;-59
2022/10/08 01:52:03;;;;;;;21.23;2.63;;;13.70;72.10;;;;;;9175821;19;20101;-62
2022/10/08 01:55:14;;;;;;;32.88;3.95;;;13.70;72.20;;;;;;9175231;19;20052;-61
2022/10/08 01:58:22;;;;;;;16.25;3.15;;;13.70;72.20;;;;;;9175252;19;20539;-59
2022/10/08 02:01:34;;;;;;;13.27;2.65;;;13.80;72.30;;;;;;9174684;19;20055;-62
2022/10/08 02:04:37;;;;;;;13.65;3.63;;;13.80;72.40;;;;;;9174209;19;20467;-63
2022/10/08 02:07:43;;;;;;;11.02;2.97;;;13.80;72.40;;;;;;9171704;19;20026;-61
2022/10/08 02:10:47;;;;;;;20.13;3.20;;;13.80;72.50;;;;;;9175436;19;20007;-61
2022/10/08 02:13:51;;;;;;;17.88;4.85;;;13.80;72.60;;;;;;9181447;19;20028;-63
2022/10/08 02:17:04;;;;;;;14.43;4.30;;;13.90;72.70;;;;;;9182933;19;20078;-63
2022/10/08 02:20:16;;;;;;;12.00;3.70;;;13.90;72.80;;;;;;9183547;19;20018;-61
2022/10/08 02:23:24;;;;;;;11.47;3.80;;;13.90;72.90;;;;;;9176138;19;20022;-62
2022/10/08 02:26:33;;;;;;;11.18;4.40;;;13.90;72.90;;;;;;9181713;19;20475;-59
2022/10/08 02:29:42;;;;;;;19.30;4.47;;;13.90;73.00;;;;;;9183106;19;20021;-65
2022/10/08 02:32:52;;;;;;;15.27;3.78;;;13.90;73.00;;;;;;9182136;19;20015;-61
2022/10/08 02:35:59;;;;;;;14.70;3.53;;;13.90;73.20;;;;;;9182945;19;20057;-61
2022/10/08 02:39:06;;;;;;;10.82;3.38;;;13.90;73.20;;;;;;9180896;19;20011;-63
2022/10/08 02:42:13;;;;;;;11.90;3.65;;;14.00;73.30;;;;;;9181916;19;20019;-61
2022/10/08 02:45:22;;;;;;;11.25;3.63;;;14.00;73.30;;;;;;9183420;19;20014;-62
2022/10/08 02:48:32;;;;;;;12.55;4.65;;;14.00;73.50;;;;;;9179912;19;20758;-60
2022/10/08 02:51:40;;;;;;;12.55;3.67;;;14.00;73.50;;;;;;9180163;19;20019;-60
2022/10/08 02:54:45;;;;;;;8.90;2.95;;;14.00;73.50;;;;;;9182176;19;20040;-60
2022/10/08 02:57:55;;;;;;;13.50;3.20;;;14.00;73.70;;;;;;9182489;19;20483;-61
2022/10/08 03:01:05;;;;;;;7.35;2.95;;;14.00;73.70;;;;;;9180443;19;20022;-60
2022/10/08 03:04:16;;;;;;;10.63;3.08;;;14.00;73.70;;;;;;9181688;19;20528;-62
2022/10/08 03:07:21;;;;;;;13.80;2.97;;;14.00;73.80;;;;;;9179412;19;20010;-62
2022/10/08 03:10:26;;;;;;;10.90;3.63;;;14.00;73.80;;;;;;9181138;19;20095;-63
2022/10/08 03:13:31;;;;;;;9.77;3.17;;;14.00;73.90;;;;;;9181013;19;20033;-62
2022/10/08 03:16:38;;;;;;;12.95;3.83;;;14.00;74.00;;;;;;9181528;19;20070;-61
2022/10/08 03:19:44;;;;;;;14.95;3.97;;;14.00;74.10;;;;;;9179166;19;20015;-60
2022/10/08 03:22:48;;;;;;;11.20;3.40;;;14.00;74.10;;;;;;9176335;19;20467;-61
2022/10/08 03:25:52;;;;;;;8.90;3.45;;;13.90;74.10;;;;;;9180703;19;20011;-62
2022/10/08 03:28:56;;;;;;;8.35;3.40;;;13.90;74.20;;;;;;9180931;19;20015;-60
2022/10/08 03:31:59;;;;;;;9.05;3.40;;;13.90;74.30;;;;;;9179016;19;20018;-63
2022/10/08 03:35:05;;;;;;;11.88;3.35;;;13.90;75.00;;;;;;9179902;19;20018;-60
2022/10/08 03:38:09;;;;;;;12.25;2.88;;;13.90;74.50;;;;;;9181186;19;20035;-61
2022/10/08 03:41:13;;;;;;;8.52;2.90;;;13.90;74.50;;;;;;9180903;19;20010;-63
2022/10/08 03:44:16;;;;;;;7.80;2.90;;;13.90;74.60;;;;;;9179475;19;20068;-62
2022/10/08 03:47:20;;;;;;;8.43;3.20;;;13.90;74.60;;;;;;9178982;19;20025;-63
2022/10/08 03:50:26;;;;;;;12.18;3.45;;;13.90;74.70;;;;;;9180227;19;20019;-59
2022/10/08 03:53:32;;;;;;;6.43;2.88;;;13.90;74.80;;;;;;9179742;19;20022;-59
2022/10/08 03:56:36;;;;;;;10.27;2.75;;;13.90;74.80;;;;;;9181037;19;20026;-61
2022/10/08 03:59:40;;;;;;;9.50;2.42;;;13.90;74.90;;;;;;9180110;19;20017;-61
2022/10/08 04:02:43;;;;;;;8.80;2.45;;;13.90;74.90;;;;;;9179268;19;20025;-62
2022/10/08 04:05:51;;;;;;;11.55;3.35;;;13.90;74.90;;;;;;9177727;19;20471;-60
2022/10/08 04:08:59;;;;;;;9.18;3.45;;;13.90;75.00;;;;;;9178844;19;20442;-62
2022/10/08 04:12:03;;;;;;;7.55;2.28;;;13.90;75.00;;;;;;9178834;19;20015;-59
2022/10/08 04:15:08;;;;;;;10.10;2.95;;;13.90;75.00;;;;;;9177586;19;20014;-62
2022/10/08 04:18:12;;;;;;;14.50;3.72;;;13.90;75.10;;;;;;9178523;19;20023;-60
2022/10/08 04:21:19;;;;;;;14.40;3.10;;;13.80;75.10;;;;;;9178533;19;20056;-62
2022/10/08 04:24:23;;;;;;;7.70;2.50;;;13.80;75.10;;;;;;9174370;19;20025;-63
2022/10/08 04:27:26;;;;;;;7.13;2.55;;;13.80;75.10;;;;;;9177510;19;20027;-61
2022/10/08 04:30:30;;;;;;;9.20;2.65;;;13.80;75.20;;;;;;9179098;19;20011;-64
2022/10/08 04:33:36;;;;;;;7.03;2.75;;;13.80;75.30;;;;;;9176680;19;20082;-62
2022/10/08 04:36:41;;;;;;;6.95;2.83;;;13.70;75.20;;;;;;9177754;19;20011;-60
2022/10/08 04:39:45;;;;;;;7.55;3.10;;;13.70;75.30;;;;;;9178623;19;20014;-60
2022/10/08 04:42:51;;;;;;;11.18;2.95;;;13.70;75.30;;;;;;9177833;19;20047;-59
2022/10/08 04:45:55;;;;;;;6.88;3.08;;;13.70;75.40;;;;;;9178350;19;20014;-61
2022/10/08 04:48:59;;;;;;;10.50;3.05;;;13.70;76.10;;;;;;9177817;19;20514;-60
2022/10/08 04:52:04;;;;;;;9.20;2.78;;;13.60;75.50;;;;;;9178348;19;20018;-59
2022/10/08 04:55:10;;;;;;;12.90;3.33;;;13.60;75.50;;;;;;9178810;19;20002;-62
2022/10/08 04:58:13;;;;;;;12.43;3.53;;;13.60;75.60;;;;;;9177668;19;20035;-60
2022/10/08 05:01:19;;;;;;;17.63;4.47;;;13.60;75.60;;;;;;9176288;19;20082;-61
2022/10/08 05:04:23;;;;;;;7.97;3.88;;;13.50;75.60;;;;;;9177100;19;20052;-61
2022/10/08 05:07:30;;;;;;;;;;;13.50;75.70;;;;;;9172595;19;20018;-62
2022/10/08 05:10:33;;;;;;;10.25;4.65;;;13.50;75.70;;;;;;9169289;19;21624;-63
2022/10/08 05:13:37;;;;;;;16.42;5.10;;;13.50;75.60;;;;;;9167608;19;20052;-62
2022/10/08 05:16:41;;;;;;;20.05;6.60;;;13.50;75.70;;;;;;9170204;19;20098;-61
2022/10/08 05:19:44;;;;;;;11.32;5.93;;;13.40;75.70;;;;;;9167289;19;20044;-60
2022/10/08 05:22:50;;;;;;;17.80;7.45;;;13.40;75.80;;;;;;9163234;19;20033;-59
2022/10/08 05:25:54;;;;;;;18.13;6.68;;;13.40;76.00;;;;;;9176840;19;20047;-60
2022/10/08 05:28:59;;;;;;;14.85;6.72;;;13.40;76.10;;;;;;9172795;19;20007;-63
2022/10/08 05:32:03;;;;;;;12.85;6.85;;;13.40;76.20;;;;;;9175703;19;20428;-59
2022/10/08 05:35:08;;;;;;;22.00;8.15;;;13.40;76.20;;;;;;9176211;19;20086;-60
2022/10/08 05:38:13;;;;;;;22.33;7.65;;;13.40;76.30;;;;;;9176345;19;20577;-59
2022/10/08 05:41:18;;;;;;;17.73;7.45;;;13.40;76.40;;;;;;9176124;19;20014;-61
2022/10/08 05:44:22;;;;;;;13.65;6.65;;;13.40;76.40;;;;;;9175840;19;20396;-62
2022/10/08 05:47:26;;;;;;;12.40;7.32;;;13.40;76.50;;;;;;9177272;19;20017;-62
2022/10/08 05:50:29;;;;;;;16.70;7.47;;;13.40;76.60;;;;;;9183583;19;20018;-59
2022/10/08 05:53:38;;;;;;;14.32;8.07;;;13.40;76.50;;;;;;9183735;19;20029;-62
2022/10/08 05:56:41;;;;;;;13.90;7.85;;;13.40;76.70;;;;;;9184698;19;20040;-61
2022/10/08 05:59:45;;;;;;;18.52;8.00;;;13.40;76.60;;;;;;9183734;19;20010;-63
2022/10/08 06:02:50;;;;;;;21.13;11.05;;;13.40;76.70;;;;;;9183906;19;20397;-60
2022/10/08 06:05:54;;;;;;;19.40;9.27;;;13.40;76.80;;;;;;9181142;19;20684;-62
2022/10/08 06:09:01;;;;;;;23.58;8.30;;;13.40;76.80;;;;;;9179975;19;20018;-61
2022/10/08 06:12:07;;;;;;;17.95;8.27;;;13.40;76.90;;;;;;9183505;19;20025;-62
2022/10/08 06:15:11;;;;;;;16.38;7.25;;;13.40;76.90;;;;;;9183002;19;20378;-62
2022/10/08 06:18:14;;;;;;;;;;;13.30;76.90;;;;;;9183315;19;20023;-60
2022/10/08 06:21:20;;;;;;;21.75;8.07;;;13.30;76.90;;;;;;9183568;19;20400;-60
2022/10/08 06:24:26;;;;;;;20.17;9.43;;;13.30;76.70;;;;;;9178485;19;20094;-61
2022/10/08 06:27:29;;;;;;;19.33;8.65;;;13.30;76.90;;;;;;9181732;19;20056;-61
2022/10/08 06:30:33;;;;;;;20.23;8.52;;;13.30;76.90;;;;;;9180544;19;20494;-62
2022/10/08 06:33:36;;;;;;;17.45;8.43;;;13.30;77.00;;;;;;9183187;19;20090;-60
2022/10/08 06:36:40;;;;;;;18.90;8.70;;;13.30;77.10;;;;;;9182420;19;20048;-61
2022/10/08 06:39:46;;;;;;;22.08;8.40;;;13.30;77.10;;;;;;9181548;19;20020;-60
2022/10/08 06:42:52;;;;;;;23.13;9.43;;;13.30;77.20;;;;;;9182711;19;20455;-60
2022/10/08 06:45:58;;;;;;;;;;;13.30;77.20;;;;;;9182654;19;20018;-61
2022/10/08 06:49:04;;;;;;;16.60;8.05;;;13.30;77.20;;;;;;9179587;19;19953;-60
2022/10/08 06:52:08;;;;;;;17.35;8.15;;;13.30;77.00;;;;;;9182158;19;20019;-60
2022/10/08 06:55:13;;;;;;;17.08;9.48;;;13.30;77.20;;;;;;9182118;19;20048;-59
2022/10/08 06:58:17;;;;;;;20.83;8.73;;;13.30;77.30;;;;;;9181440;19;20022;-61
2022/10/08 07:01:23;;;;;;;18.00;8.23;;;13.30;77.40;;;;;;9181355;19;20014;-60
2022/10/08 07:04:31;;;;;;;19.13;8.27;;;13.30;77.50;;;;;;9179856;19;20019;-60
2022/10/08 07:07:34;;;;;;;22.60;8.90;;;13.30;77.50;;;;;;9180317;19;20429;-60
2022/10/08 07:10:40;;;;;;;18.63;7.88;;;13.30;77.60;;;;;;9180289;19;20040;-62
2022/10/08 07:13:44;;;;;;;13.43;7.18;;;13.30;77.60;;;;;;9179834;19;20010;-65
2022/10/08 07:16:48;;;;;;;14.93;7.63;;;13.30;77.70;;;;;;9180090;19;20085;-58
2022/10/08 07:19:52;;;;;;;18.42;7.70;;;13.40;77.80;;;;;;9181892;19;20015;-60
2022/10/08 07:22:56;;;;;;;15.45;6.88;;;13.30;77.80;;;;;;9176553;19;20011;-61
2022/10/08 07:26:03;;;;;;;19.48;6.97;;;13.40;77.90;;;;;;9179774;19;20475;-63
2022/10/08 07:29:09;;;;;;;13.15;6.70;;;13.40;78.00;;;;;;9177200;19;20048;-62
2022/10/08 07:32:12;;;;;;;20.60;7.30;;;13.40;78.00;;;;;;9181193;19;20015;-61
2022/10/08 07:35:16;;;;;;;13.60;5.88;;;13.40;78.10;;;;;;9180482;19;20022;-59
2022/10/08 07:38:20;;;;;;;;;;;13.50;78.20;;;;;;9181645;19;20036;-61
2022/10/08 07:41:26;;;;;;;11.15;5.25;;;13.50;78.10;;;;;;9180477;19;19967;-60
2022/10/08 07:44:30;;;;;;;17.20;6.70;;;13.60;78.00;;;;;;9178729;19;20494;-62
2022/10/08 07:47:33;;;;;;;13.35;5.15;;;13.70;78.10;;;;;;9178611;19;20021;-60
2022/10/08 07:50:37;;;;;;;19.98;5.57;;;13.80;78.20;;;;;;9177616;19;20088;-64
2022/10/08 07:53:41;;;;;;;10.43;4.47;;;13.90;78.30;;;;;;9176459;19;20027;-59
2022/10/08 07:56:47;;;;;;;15.00;4.20;;;14.00;78.40;;;;;;9178959;19;20025;-59
2022/10/08 07:59:51;;;;;;;11.68;4.60;;;14.10;78.40;;;;;;9175994;19;20504;-62
2022/10/08 08:02:55;;;;;;;10.73;3.72;;;14.20;78.20;;;;;;9176244;19;20014;-61
2022/10/08 08:06:02;;;;;;;10.40;4.13;;;14.30;78.20;;;;;;9175705;19;20014;-62
2022/10/08 08:09:05;;;;;;;12.88;3.85;;;14.40;78.10;;;;;;9176268;19;20078;-62
2022/10/08 08:12:11;;;;;;;12.55;4.15;;;14.50;78.10;;;;;;9178490;19;20017;-62
2022/10/08 08:15:14;;;;;;;12.55;3.50;;;14.60;78.00;;;;;;9178899;19;20014;-59
2022/10/08 08:18:18;;;;;;;15.13;3.95;;;14.70;78.50;;;;;;9179336;19;20010;-61
2022/10/08 08:21:23;;;;;;;8.00;2.85;;;14.80;77.90;;;;;;9179047;19;20022;-64
2022/10/08 08:24:27;;;;;;;10.85;3.10;;;14.90;77.70;;;;;;9174033;19;20509;-64
2022/10/08 08:27:33;;;;;;;12.45;2.85;;;15.00;77.60;;;;;;9177332;19;20052;-60
2022/10/08 08:30:36;;;;;;;13.60;2.45;;;15.10;77.60;;;;;;9176760;19;20417;-63
2022/10/08 08:33:41;;;;;;;7.40;1.83;;;15.20;77.60;;;;;;9178399;19;20077;-62
2022/10/08 08:36:47;;;;;;;12.27;2.53;;;15.30;77.50;;;;;;9177302;19;20022;-62
2022/10/08 08:39:51;;;;;;;13.45;2.08;;;15.40;77.40;;;;;;9177183;19;20025;-61
2022/10/08 08:42:57;;;;;;;13.15;2.45;;;15.50;77.40;;;;;;9175234;19;20036;-63
2022/10/08 08:46:03;;;;;;;18.33;2.30;;;15.60;77.80;;;;;;9178806;19;20015;-61
2022/10/08 08:49:15;;;;;;;8.80;2.13;;;15.70;77.10;;;;;;9173470;19;20018;-61
2022/10/08 08:52:21;;;;;;;4.72;1.70;;;15.80;76.90;;;;;;9177137;19;20423;-61
2022/10/08 08:55:34;;;;;;;8.70;1.30;;;16.00;76.80;;;;;;9175975;19;20015;-62
2022/10/08 08:58:43;;;;;;;8.63;1.70;;;16.00;76.60;;;;;;9176803;19;20083;-61
2022/10/08 09:01:49;;;;;;;11.70;1.52;;;16.20;76.40;;;;;;9176720;19;20017;-62
2022/10/08 09:04:56;;;;;;;11.27;1.90;;;16.20;76.10;;;;;;9174455;19;20018;-62
2022/10/08 09:08:04;;;;;;;7.13;1.90;;;16.30;75.90;;;;;;9175783;19;20057;-62
2022/10/08 09:11:13;;;;;;;9.23;2.15;;;16.40;75.80;;;;;;9178219;19;20018;-61
2022/10/08 09:14:37;;;;;;;9.50;3.05;;;16.50;75.60;;;;;;9175441;19;20134;-62
2022/10/08 09:17:42;;;;;;;10.05;1.67;;;16.60;75.20;;;;;;9177144;19;20074;-61
2022/10/08 09:20:46;;;;;;;9.30;1.40;;;16.60;75.20;;;;;;9176736;19;20295;-64
2022/10/08 09:23:50;;;;;;;6.38;1.50;;;16.70;75.00;;;;;;9180237;19;20102;-63
2022/10/08 09:26:55;;;;;;;10.05;1.48;;;16.80;74.80;;;;;;9182552;19;20410;-62
2022/10/08 09:30:00;;;;;;;9.07;1.73;;;16.80;74.50;;;;;;9184769;19;20081;-61
2022/10/08 09:33:17;;;;;;;14.32;1.80;;;16.90;74.40;;;;;;9184554;19;20022;-60
2022/10/08 09:36:30;;;;;;;12.90;1.95;;;16.90;74.80;;;;;;9184414;19;20019;-60
2022/10/08 09:39:37;;;;;;;9.55;1.35;;;17.00;73.80;;;;;;9184676;19;20030;-60
2022/10/08 09:42:40;;;;;;;11.23;1.42;;;17.00;73.80;;;;;;9185346;19;20014;-62
2022/10/08 09:45:48;;;;;;;6.80;0.90;;;17.10;73.70;;;;;;9182056;19;20077;-61
2022/10/08 09:48:52;;;;;;;10.57;1.33;;;17.10;73.60;;;;;;9183399;19;20026;-60
2022/10/08 09:51:57;;;;;;;6.68;1.48;;;17.20;73.60;;;;;;9183904;19;20385;-61
2022/10/08 09:55:04;;;;;;;5.00;0.90;;;17.20;73.30;;;;;;9179211;19;21596;-62
2022/10/08 09:58:16;;;;;;;6.68;1.10;;;17.30;73.10;;;;;;9182515;19;20019;-61
2022/10/08 10:01:23;;;;;;;6.93;1.98;;;17.30;72.90;;;;;;9183392;19;20022;-62
2022/10/08 10:04:34;;;;;;;12.55;1.98;;;17.40;72.70;;;;;;9182313;19;20033;-62
2022/10/08 10:07:41;;;;;;;7.53;1.15;;;17.40;72.50;;;;;;9182196;19;20018;-59
2022/10/08 10:10:47;;;;;;;9.38;1.75;;;17.50;72.40;;;;;;9182881;19;20046;-61
2022/10/08 10:13:51;;;;;;;10.00;1.25;;;17.40;72.10;;;;;;9183416;19;20019;-63
2022/10/08 10:17:03;;;;;;;9.38;1.35;;;17.50;72.10;;;;;;9183059;19;20354;-60
2022/10/08 10:20:16;;;;;;;10.00;2.15;;;17.50;71.80;;;;;;9183785;19;20038;-63
2022/10/08 10:23:23;;;;;;;9.52;1.25;;;17.50;71.90;;;;;;9175548;19;20014;-60
2022/10/08 10:26:31;;;;;;;13.05;1.60;;;17.50;71.90;;;;;;9183218;19;20497;-62
2022/10/08 10:29:49;;;;;;;6.75;1.23;;;17.60;72.00;;;;;;9180065;19;20014;-63
2022/10/08 10:33:01;;;;;;;9.18;1.27;;;17.70;71.90;;;;;;9181388;19;20029;-61
2022/10/08 10:36:10;;;;;;;7.25;1.40;;;17.90;71.70;;;;;;9181348;19;20018;-62
2022/10/08 10:39:27;;;;;;;11.13;1.77;;;18.00;71.60;;;;;;9181991;19;20018;-63
2022/10/08 10:42:37;;;;;;;4.97;1.58;;;18.20;71.20;;;;;;9180554;19;20033;-62
2022/10/08 10:45:44;;;;;;;11.35;1.80;;;18.40;71.10;;;;;;9178647;19;20019;-65
2022/10/08 10:48:51;;;;;;;7.57;1.55;;;18.50;70.80;;;;;;9177230;19;20015;-62
2022/10/08 10:52:04;;;;;;;8.48;1.20;;;18.70;70.50;;;;;;9181254;19;20088;-63
2022/10/08 10:55:19;;;;;;;5.18;2.00;;;18.90;70.20;;;;;;9181825;19;20604;-62
2022/10/08 10:58:33;;;;;;;3.65;1.05;;;19.00;69.90;;;;;;9182034;19;20017;-64
2022/10/08 11:01:44;;;;;;;8.20;1.55;;;19.10;69.50;;;;;;9182036;19;20101;-61
2022/10/08 11:04:59;;;;;;;5.20;1.42;;;19.20;69.20;;;;;;9180715;19;20018;-61
2022/10/08 11:08:29;;;;;;;10.63;1.90;;;19.20;68.90;;;;;;9179595;19;20393;-62
2022/10/08 11:11:37;;;;;;;9.15;1.30;;;19.30;68.80;;;;;;9180624;19;20020;-61
2022/10/08 11:14:51;;;;;;;3.83;0.85;;;19.30;68.90;;;;;;9180170;19;20516;-61
2022/10/08 11:18:13;;;;;;;7.82;1.33;;;19.40;68.60;;;;;;9180006;19;20518;-63
2022/10/08 11:21:34;;;;;;;6.10;1.27;;;19.50;68.40;;;;;;9179806;19;20018;-63
2022/10/08 11:24:58;;;;;;;9.75;1.40;;;19.50;68.20;;;;;;9176493;19;20014;-61
2022/10/08 11:28:07;;;;;;;;;;;19.60;68.20;;;;;;9180062;19;20018;-61
2022/10/08 11:31:18;;;;;;;5.57;1.27;;;19.70;68.50;;;;;;9180423;19;20741;-61
2022/10/08 11:34:25;;;;;;;4.88;1.65;;;19.70;68.20;;;;;;9180811;19;20015;-61
2022/10/08 11:37:39;;;;;;;8.50;1.20;;;19.70;67.80;;;;;;9178758;19;20442;-63
2022/10/08 11:40:48;;;;;;;4.35;1.80;;;19.60;67.30;;;;;;9180743;19;20011;-67
2022/10/08 11:43:56;;;;;;;5.60;1.20;;;19.60;67.30;;;;;;9179423;19;20806;-61
2022/10/08 11:47:29;;;;;;;12.60;1.15;;;19.50;67.10;;;;;;9173497;19;20085;-61
2022/10/08 11:50:35;;;;;;;6.50;1.15;;;19.30;66.60;;;;;;9179922;19;20027;-61
2022/10/08 11:53:41;;;;;;;8.30;2.65;;;19.20;67.10;;;;;;9179554;19;20078;-66
2022/10/08 11:56:47;;;;;;;12.32;1.48;;;19.10;67.10;;;;;;9180754;19;20456;-64
2022/10/08 11:59:58;;;;;;;9.50;1.80;;;19.00;67.20;;;;;;9176235;19;20459;-63
2022/10/08 12:03:21;;;;;;;6.18;1.00;;;18.90;67.10;;;;;;9180376;19;20082;-62
2022/10/08 12:06:28;;;;;;;5.45;1.27;;;18.90;67.00;;;;;;9176008;19;20014;-62
2022/10/08 12:10:03;;;;;;;13.90;1.92;;;18.90;67.30;;;;;;9174172;19;20072;-62
2022/10/08 12:13:28;;;;;;;9.30;1.38;;;18.90;66.90;;;;;;9179497;19;20098;-64
2022/10/08 12:17:09;;;;;;;9.60;1.67;;;19.00;67.00;;;;;;9179923;19;20794;-63
2022/10/08 12:20:21;;;;;;;4.88;1.20;;;19.10;66.80;;;;;;9177516;19;20019;-64
2022/10/08 12:23:39;;;;;;;19.50;1.90;;;19.10;66.90;;;;;;9173198;19;20010;-63
2022/10/08 12:27:31;;;;;;;10.82;1.52;;;19.20;66.80;;;;;;9177823;19;20039;-64
2022/10/08 12:30:50;;;;;;;8.05;1.60;;;19.30;66.60;;;;;;9175604;19;20018;-62
2022/10/08 12:34:03;;;;;;;15.88;1.80;;;19.30;66.50;;;;;;9176861;19;20018;-64
2022/10/08 12:37:15;;;;;;;7.15;1.58;;;19.30;66.40;;;;;;9176782;19;20788;-62
2022/10/08 12:40:31;;;;;;;7.45;1.40;;;19.30;66.30;;;;;;9178415;19;20015;-63
2022/10/08 12:43:41;;;;;;;13.43;1.58;;;19.30;66.10;;;;;;9178415;19;20060;-63
2022/10/08 12:46:56;;;;;;;4.38;1.00;;;19.30;65.90;;;;;;9178252;19;20085;-61
2022/10/08 12:50:07;;;;;;;9.82;1.83;;;19.30;65.60;;;;;;9170071;19;20022;-60
2022/10/08 12:53:14;;;;;;;10.77;2.13;;;19.20;65.60;;;;;;9171954;19;20014;-64
2022/10/08 12:56:23;;;;;;;6.05;1.30;;;19.20;65.60;;;;;;9173327;19;20014;-61
2022/10/08 12:59:30;;;;;;;5.38;1.10;;;19.10;65.50;;;;;;9176785;19;20403;-60
2022/10/08 13:02:41;;;;;;;7.07;1.52;;;19.10;65.60;;;;;;9175478;19;20412;-62
2022/10/08 13:05:46;;;;;;;6.30;1.27;;;19.00;65.40;;;;;;9173346;19;20091;-61
2022/10/08 13:08:53;;;;;;;6.72;1.60;;;19.00;65.40;;;;;;9169621;19;20017;-60
2022/10/08 13:11:58;;;;;;;4.32;1.27;;;18.90;65.20;;;;;;9171343;19;20106;-61
2022/10/08 13:15:08;;;;;;;10.77;1.42;;;18.80;64.90;;;;;;9168581;19;20501;-61
2022/10/08 13:18:22;;;;;;;11.07;1.27;;;18.80;64.80;;;;;;9175279;19;20022;-61
2022/10/08 13:21:34;;;;;;;7.50;1.20;;;18.70;64.40;;;;;;9176120;19;20018;-61
2022/10/08 13:24:40;;;;;;;6.82;1.10;;;18.60;64.70;;;;;;9172423;19;20403;-63
2022/10/08 13:27:44;;;;;;;9.00;1.70;;;18.50;64.60;;;;;;9175784;19;20026;-61
2022/10/08 13:30:48;;;;;;;7.60;1.30;;;18.40;64.60;;;;;;9176706;19;20085;-60
2022/10/08 13:33:54;;;;;;;;;;;18.30;64.60;;;;;;9176272;19;20032;-61
2022/10/08 13:36:59;;;;;;;8.52;2.10;;;18.20;64.70;;;;;;9174591;19;20606;-61
2022/10/08 13:40:06;;;;;;;14.77;1.98;;;18.10;64.90;;;;;;9175643;19;20468;-61
2022/10/08 13:43:09;;;;;;;13.70;1.73;;;18.00;64.80;;;;;;9175008;19;20040;-60
2022/10/08 13:46:13;;;;;;;4.97;1.17;;;18.00;64.80;;;;;;9175242;19;20018;-64
2022/10/08 13:49:22;;;;;;;5.55;1.55;;;18.00;64.90;;;;;;9173465;19;20099;-63
2022/10/08 13:52:26;;;;;;;7.85;1.35;;;17.90;64.60;;;;;;9176549;19;20021;-62
2022/10/08 13:55:32;;;;;;;6.88;1.83;;;17.90;64.60;;;;;;9175464;19;20105;-64
2022/10/08 13:58:36;;;;;;;8.93;1.38;;;17.90;64.50;;;;;;9176693;19;20022;-62
2022/10/08 14:01:39;;;;;;;9.10;1.48;;;17.90;64.50;;;;;;9175904;19;20019;-62
2022/10/08 14:04:45;;;;;;;20.23;1.58;;;17.90;64.50;;;;;;9173452;19;20025;-62
2022/10/08 14:07:51;;;;;;;5.07;1.42;;;17.80;64.40;;;;;;9174942;19;20025;-63
2022/10/08 14:10:56;;;;;;;6.88;1.02;;;17.90;64.40;;;;;;9183517;19;20389;-62
2022/10/08 14:14:00;;;;;;;8.20;1.88;;;17.90;64.40;;;;;;9183457;19;20081;-63
2022/10/08 14:17:04;;;;;;;11.85;1.30;;;17.90;64.20;;;;;;9182080;19;20499;-63
2022/10/08 14:20:10;;;;;;;8.60;1.48;;;17.80;64.20;;;;;;9181407;19;20423;-61
2022/10/08 14:23:14;;;;;;;4.57;0.90;;;17.90;64.20;;;;;;9177710;19;20046;-61
2022/10/08 14:26:18;;;;;;;;;;;17.90;64.10;;;;;;9182399;19;20374;-63
2022/10/08 14:29:22;;;;;;;8.30;1.13;;;17.90;64.20;;;;;;9180892;19;20037;-60
2022/10/08 14:32:25;;;;;;;8.88;1.38;;;17.90;64.30;;;;;;9182524;19;20027;-61
2022/10/08 14:35:31;;;;;;;7.22;1.15;;;17.90;64.10;;;;;;9179464;19;20015;-61
2022/10/08 14:38:34;;;;;;;7.57;0.88;;;17.90;63.90;;;;;;9182275;19;20027;-61
2022/10/08 14:41:39;;;;;;;9.50;2.22;;;17.90;63.80;;;;;;9182509;19;20015;-62
2022/10/08 14:44:43;;;;;;;4.07;1.20;;;17.90;63.70;;;;;;9182312;19;20035;-63
2022/10/08 14:47:47;;;;;;;7.25;1.42;;;17.80;63.60;;;;;;9181673;19;20027;-63
2022/10/08 14:50:52;;;;;;;14.05;1.60;;;17.80;63.50;;;;;;9181651;19;20472;-61
2022/10/08 14:53:56;;;;;;;6.70;0.98;;;17.80;63.40;;;;;;9181325;19;20411;-61
2022/10/08 14:56:59;;;;;;;5.50;1.00;;;17.70;63.40;;;;;;9181251;19;20019;-60
2022/10/08 15:00:04;;;;;;;6.70;1.20;;;17.70;63.50;;;;;;9181711;19;20018;-64
2022/10/08 15:03:08;;;;;;;12.52;1.55;;;17.60;63.50;;;;;;9182461;19;20022;-63
2022/10/08 15:06:13;;;;;;;10.68;2.78;;;17.60;63.60;;;;;;9177764;19;20055;-64
2022/10/08 15:09:17;;;;;;;7.07;1.60;;;17.60;63.70;;;;;;9179507;19;20040;-62
2022/10/08 15:12:21;;;;;;;10.80;2.15;;;17.50;63.70;;;;;;9182341;19;20734;-61
2022/10/08 15:15:24;;;;;;;7.13;1.98;;;17.40;63.70;;;;;;9182776;19;20017;-61
2022/10/08 15:18:31;;;;;;;8.20;1.33;;;17.30;63.70;;;;;;9181488;19;20487;-61
2022/10/08 15:21:37;;;;;;;8.20;1.30;;;17.30;63.80;;;;;;9180058;19;20010;-61
2022/10/08 15:24:40;;;;;;;7.43;1.45;;;17.30;63.90;;;;;;9175931;19;20074;-61
2022/10/08 15:27:44;;;;;;;7.70;1.50;;;17.20;63.90;;;;;;9180488;19;20395;-60
2022/10/08 15:30:48;;;;;;;;;;;17.10;64.00;;;;;;9178598;19;20477;-61
2022/10/08 15:33:54;;;;;;;5.75;1.02;;;17.10;64.10;;;;;;9178074;19;19943;-62
2022/10/08 15:37:00;;;;;;;12.38;2.10;;;17.00;64.10;;;;;;9179860;19;20025;-62
2022/10/08 15:40:04;;;;;;;7.70;1.52;;;16.90;64.00;;;;;;9177329;19;20421;-61
2022/10/08 15:43:07;;;;;;;;;;;16.90;64.10;;;;;;9181284;19;20015;-61
2022/10/08 15:46:13;;;;;;;5.47;1.00;;;16.80;64.10;;;;;;9178641;19;19994;-61
2022/10/08 15:49:17;;;;;;;7.78;1.95;;;16.80;64.20;;;;;;9175054;19;20022;-64
2022/10/08 15:52:22;;;;;;;;;;;16.70;64.10;;;;;;9180544;19;20383;-62
2022/10/08 15:55:26;;;;;;;6.22;2.15;;;16.60;64.10;;;;;;9179040;19;20347;-61
2022/10/08 15:58:33;;;;;;;9.30;1.60;;;16.60;64.20;;;;;;9178528;19;20430;-61
2022/10/08 16:01:54;;;;;;;5.30;1.52;;;16.50;64.10;;;;;;9175728;19;20035;-62
2022/10/08 16:04:57;;;;;;;6.75;1.48;;;16.50;64.30;;;;;;9173385;19;20018;-62
2022/10/08 16:08:07;;;;;;;9.98;1.48;;;16.50;64.20;;;;;;9174953;19;20014;-62
2022/10/08 16:11:12;;;;;;;7.97;1.33;;;16.40;64.20;;;;;;9175540;19;20336;-62
2022/10/08 16:14:17;;;;;;;12.45;1.23;;;16.40;64.30;;;;;;9175523;19;20023;-63
2022/10/08 16:17:21;;;;;;;6.63;1.30;;;16.30;64.20;;;;;;9175539;19;20019;-63